createdAt,value
2019-04-07T00:01:59.429Z,12.79
2019-04-07T00:07:01.384Z,12.70
2019-04-07T00:12:03.304Z,12.56
2019-04-07T00:17:05.710Z,12.53
2019-04-07T00:22:07.888Z,12.40
2019-04-07T00:27:10.198Z,12.46
2019-04-07T00:32:12.336Z,12.45
2019-04-07T00:37:14.162Z,12.43
2019-04-07T00:42:16.044Z,12.42
2019-04-07T00:47:17.787Z,12.44
2019-04-07T00:52:21.504Z,12.40
2019-04-07T00:57:23.935Z,12.37
2019-04-07T01:02:26.029Z,12.35
2019-04-07T01:07:28.482Z,12.25
2019-04-07T01:12:30.276Z,12.16
2019-04-07T01:17:31.893Z,12.03
2019-04-07T01:22:34.618Z,11.95
2019-04-07T01:27:36.441Z,11.90
2019-04-07T01:32:38.859Z,11.82
2019-04-07T01:37:41.818Z,11.76
2019-04-07T01:42:56.975Z,11.69
2019-04-07T01:48:17.648Z,11.67
2019-04-07T01:53:26.436Z,11.64
2019-04-07T01:58:37.023Z,11.56
2019-04-07T02:04:07.228Z,11.44
2019-04-07T02:09:18.305Z,11.30
2019-04-07T02:14:35.526Z,11.11
2019-04-07T02:20:03.719Z,11.11
2019-04-07T02:25:15.059Z,11.09
2019-04-07T02:30:35.435Z,11.01
2019-04-07T02:35:43.237Z,10.88
2019-04-07T02:41:07.881Z,10.74
2019-04-07T02:46:31.279Z,10.65
2019-04-07T02:52:05.799Z,10.69
2019-04-07T02:57:33.868Z,10.70
2019-04-07T03:02:53.994Z,10.70
2019-04-07T03:08:18.442Z,10.72
2019-04-07T03:13:46.476Z,10.70
2019-04-07T03:18:53.249Z,10.67
2019-04-07T03:24:02.816Z,10.60
2019-04-07T03:29:24.252Z,10.60
2019-04-07T03:34:33.501Z,10.57
2019-04-07T03:39:58.879Z,10.48
2019-04-07T03:45:18.812Z,10.26
2019-04-07T03:50:26.879Z,10.16
2019-04-07T03:56:06.376Z,10.16
2019-04-07T04:01:33.972Z,10.07
2019-04-07T04:07:22.669Z,9.94
2019-04-07T04:12:22.739Z,9.76
2019-04-07T04:17:25.134Z,9.72
2019-04-07T04:22:28.963Z,9.64
2019-04-07T04:27:31.389Z,9.59
2019-04-07T04:32:33.353Z,9.64
2019-04-07T04:37:42.628Z,9.65
2019-04-07T04:42:38.897Z,9.69
2019-04-07T04:47:40.883Z,9.74
2019-04-07T04:52:42.935Z,9.77
2019-04-07T04:57:44.561Z,9.75
2019-04-07T05:02:46.868Z,9.70
2019-04-07T05:07:57.637Z,9.71
2019-04-07T05:12:52.602Z,9.64
2019-04-07T05:17:54.849Z,9.49
2019-04-07T05:22:56.582Z,9.55
2019-04-07T05:27:58.606Z,9.66
2019-04-07T05:33:00.962Z,9.68
2019-04-07T05:38:05.629Z,9.78
2019-04-07T05:43:07.177Z,9.80
2019-04-07T05:48:09.776Z,9.84
2019-04-07T05:53:14.607Z,9.86
2019-04-07T05:58:15.876Z,10.00
2019-04-07T06:03:17.808Z,10.19
2019-04-07T06:08:27.983Z,10.31
2019-04-07T06:13:23.699Z,10.43
2019-04-07T06:18:26.042Z,10.53
2019-04-07T06:23:29.838Z,10.59
2019-04-07T06:28:32.641Z,10.69
2019-04-07T06:33:37.629Z,10.84
2019-04-07T06:38:42.799Z,11.03
2019-04-07T06:43:41.974Z,11.21
2019-04-07T06:49:09.050Z,11.34
2019-04-07T06:54:28.971Z,11.47
2019-04-07T06:59:45.631Z,11.56
2019-04-07T07:05:02.939Z,11.71
2019-04-07T07:10:35.551Z,11.84
2019-04-07T07:15:55.613Z,11.92
2019-04-07T07:21:03.866Z,12.03
2019-04-07T07:26:06.051Z,12.15
2019-04-07T07:31:07.856Z,12.29
2019-04-07T07:36:09.593Z,12.39
2019-04-07T07:41:11.298Z,12.51
2019-04-07T07:46:13.111Z,12.62
2019-04-07T07:51:15.447Z,12.74
2019-04-07T07:56:18.168Z,12.85
2019-04-07T08:01:19.951Z,12.97
2019-04-07T08:06:24.094Z,13.07
2019-04-07T08:11:25.781Z,13.17
2019-04-07T08:16:31.074Z,13.27
2019-04-07T08:21:31.592Z,13.37
2019-04-07T08:26:33.591Z,13.44
2019-04-07T08:31:35.388Z,13.55
2019-04-07T08:36:38.026Z,13.66
2019-04-07T08:41:41.389Z,13.76
2019-04-07T08:46:44.379Z,13.95
2019-04-07T08:51:49.539Z,14.07
2019-04-07T08:56:51.104Z,14.16
2019-04-07T09:01:54.336Z,14.29
2019-04-07T09:06:59.371Z,14.42
2019-04-07T09:12:00.382Z,14.54
2019-04-07T09:17:11.577Z,14.68
2019-04-07T09:22:31.865Z,14.81
2019-04-07T09:27:41.104Z,14.93
2019-04-07T09:32:52.813Z,15.03
2019-04-07T09:38:12.795Z,15.15
2019-04-07T09:43:32.496Z,15.25
2019-04-07T09:49:12.200Z,15.36
2019-04-07T09:54:40.972Z,15.49
2019-04-07T10:00:14.530Z,15.67
2019-04-07T10:05:34.703Z,15.84
2019-04-07T10:10:50.805Z,16.09
2019-04-07T10:16:10.526Z,16.26
2019-04-07T10:21:31.164Z,16.40
2019-04-07T10:26:42.956Z,16.52
2019-04-07T10:32:16.668Z,16.62
2019-04-07T10:37:34.462Z,16.74
2019-04-07T10:42:59.700Z,16.92
2019-04-07T10:48:16.377Z,17.05
2019-04-07T10:53:52.776Z,17.16
2019-04-07T10:59:30.169Z,17.28
2019-04-07T11:04:58.424Z,17.43
2019-04-07T11:10:30.627Z,17.63
2019-04-07T11:15:44.410Z,17.79
2019-04-07T11:20:52.829Z,17.97
2019-04-07T11:26:13.470Z,18.20
2019-04-07T11:31:35.279Z,18.47
2019-04-07T11:36:52.846Z,18.84
2019-04-07T11:42:23.990Z,20.45
2019-04-07T11:47:38.063Z,25.32
2019-04-07T11:52:59.427Z,26.11
2019-04-07T11:58:26.014Z,25.54
2019-04-07T12:03:42.923Z,26.23
2019-04-07T12:09:06.513Z,24.87
2019-04-07T12:14:24.268Z,23.64
2019-04-07T12:19:37.228Z,23.13
2019-04-07T12:25:13.566Z,22.91
2019-04-07T12:30:38.011Z,22.76
2019-04-07T12:35:47.902Z,23.20
2019-04-07T12:41:14.385Z,23.14
2019-04-07T12:46:34.363Z,22.66
2019-04-07T12:51:56.073Z,23.21
2019-04-07T12:57:18.614Z,23.50
2019-04-07T13:02:36.798Z,23.64
2019-04-07T13:08:01.381Z,23.65
2019-04-07T13:13:35.204Z,24.23
2019-04-07T13:18:50.019Z,22.12
2019-04-07T13:23:59.426Z,23.19
2019-04-07T13:29:08.289Z,23.36
2019-04-07T13:34:31.078Z,22.32
2019-04-07T13:40:01.527Z,21.38
2019-04-07T13:45:26.843Z,21.61
2019-04-07T13:51:00.064Z,22.71
2019-04-07T13:56:11.936Z,22.79
2019-04-07T14:01:24.019Z,22.30
2019-04-07T14:06:31.292Z,23.28
2019-04-07T14:12:05.500Z,23.81
2019-04-07T14:17:12.085Z,23.05
2019-04-07T14:22:35.142Z,23.32
2019-04-07T14:27:59.543Z,23.42
2019-04-07T14:33:13.280Z,23.38
2019-04-07T14:38:32.317Z,23.40
2019-04-07T14:43:43.862Z,23.02
2019-04-07T14:49:04.429Z,23.11
2019-04-07T14:54:37.807Z,22.95
2019-04-07T14:59:44.985Z,23.26
2019-04-07T15:04:50.987Z,23.15
2019-04-07T15:09:57.824Z,23.13
2019-04-07T15:15:02.111Z,23.23
2019-04-07T15:20:04.678Z,23.36
2019-04-07T15:25:07.658Z,23.95
2019-04-07T15:30:13.314Z,23.72
2019-04-07T15:35:15.132Z,24.82
2019-04-07T15:40:18.126Z,25.92
2019-04-07T15:45:20.491Z,26.51
2019-04-07T15:50:29.224Z,27.30
2019-04-07T15:55:37.128Z,28.84
2019-04-07T16:00:32.348Z,30.42
2019-04-07T16:05:40.392Z,29.84
2019-04-07T16:10:37.985Z,30.44
2019-04-07T16:15:42.654Z,29.35
2019-04-07T16:20:43.259Z,30.12
2019-04-07T16:25:44.999Z,29.52
2019-04-07T16:30:49.376Z,29.71
2019-04-07T16:35:53.951Z,29.14
2019-04-07T16:40:53.885Z,28.48
2019-04-07T16:45:55.783Z,28.32
2019-04-07T16:50:57.401Z,26.71
2019-04-07T16:55:59.092Z,26.10
2019-04-07T17:01:01.264Z,24.58
2019-04-07T17:06:03.059Z,23.38
2019-04-07T17:11:07.690Z,22.56
2019-04-07T17:16:10.993Z,21.95
2019-04-07T17:21:16.250Z,21.36
2019-04-07T17:26:18.153Z,20.73
2019-04-07T17:31:30.040Z,20.12
2019-04-07T17:36:31.487Z,19.71
2019-04-07T17:41:33.870Z,19.26
2019-04-07T17:46:57.072Z,18.84
2019-04-07T17:52:15.359Z,18.56
2019-04-07T17:57:46.183Z,18.35
2019-04-07T18:03:07.566Z,18.16
2019-04-07T18:08:23.960Z,18.03
2019-04-07T18:13:57.623Z,17.90
2019-04-07T18:19:20.802Z,17.81
2019-04-07T18:24:30.840Z,17.69
2019-04-07T18:30:02.293Z,17.60
2019-04-07T18:35:16.494Z,17.50
2019-04-07T18:40:46.547Z,17.34
2019-04-07T18:46:10.574Z,17.20
2019-04-07T18:51:39.241Z,17.06
2019-04-07T18:56:59.785Z,16.97
2019-04-07T19:02:19.450Z,16.89
2019-04-07T19:07:41.741Z,16.83
2019-04-07T19:13:15.980Z,16.72
2019-04-07T19:18:43.740Z,16.62
2019-04-07T19:24:20.166Z,16.54
2019-04-07T19:29:43.061Z,16.41
2019-04-07T19:35:22.839Z,16.34
2019-04-07T19:40:43.203Z,16.25
2019-04-07T19:46:07.191Z,16.15
2019-04-07T19:51:26.684Z,16.11
2019-04-07T19:57:02.779Z,16.09
2019-04-07T20:02:24.093Z,16.02
2019-04-07T20:07:48.574Z,15.91
2019-04-07T20:13:09.147Z,15.84
2019-04-07T20:18:17.380Z,15.78
2019-04-07T20:23:33.093Z,15.71
2019-04-07T20:28:49.812Z,15.63
2019-04-07T20:34:02.176Z,15.57
2019-04-07T20:39:33.825Z,15.46
2019-04-07T20:45:14.224Z,15.33
2019-04-07T20:50:29.805Z,15.21
2019-04-07T20:55:56.708Z,15.12
2019-04-07T21:01:24.393Z,15.06
2019-04-07T21:06:44.202Z,15.02
2019-04-07T21:12:04.974Z,14.98
2019-04-07T21:17:28.763Z,14.89
2019-04-07T21:22:37.083Z,14.86
2019-04-07T21:27:57.256Z,14.77
2019-04-07T21:33:22.503Z,14.72
2019-04-07T21:38:52.542Z,14.67
2019-04-07T21:44:11.329Z,14.61
2019-04-07T21:49:22.312Z,14.63
2019-04-07T21:54:39.021Z,14.64
2019-04-07T21:59:54.188Z,14.59
2019-04-07T22:05:12.404Z,14.61
2019-04-07T22:10:14.213Z,14.59
2019-04-07T22:15:15.876Z,14.63
2019-04-07T22:20:18.927Z,14.67
2019-04-07T22:25:28.687Z,14.68
2019-04-07T22:30:30.606Z,14.68
2019-04-07T22:35:36.452Z,14.66
2019-04-07T22:40:37.959Z,14.67
2019-04-07T22:45:39.555Z,14.64
2019-04-07T22:50:41.354Z,14.62
2019-04-07T22:55:43.309Z,14.59
2019-04-07T23:00:45.001Z,14.57
2019-04-07T23:05:47.061Z,14.59
2019-04-07T23:10:49.731Z,14.56
2019-04-07T23:15:52.299Z,14.59
2019-04-07T23:20:54.127Z,14.59
2019-04-07T23:25:55.734Z,14.57
2019-04-07T23:30:57.366Z,14.52
2019-04-07T23:35:59.705Z,14.36
2019-04-07T23:41:01.415Z,14.36
2019-04-07T23:52:09.899Z,14.32
2019-04-07T23:57:11.455Z,14.23
